sensor_id;sensor_type;location;lat;lon;timestamp;P1;durP1;ratioP1;P2;durP2;ratioP2
73693;SDS011;61997;53.974;11.670;2022-07-06T00:01:44;6.68;;;4.03;;
73693;SDS011;61997;53.974;11.670;2022-07-06T00:04:10;6.05;;;4.10;;
73693;SDS011;61997;53.974;11.670;2022-07-06T00:06:36;6.75;;;4.00;;
73693;SDS011;61997;53.974;11.670;2022-07-06T00:09:03;5.68;;;3.78;;
73693;SDS011;61997;53.974;11.670;2022-07-06T00:11:29;7.40;;;3.90;;
73693;SDS011;61997;53.974;11.670;2022-07-06T00:13:55;5.93;;;3.90;;
73693;SDS011;61997;53.974;11.670;2022-07-06T00:16:21;8.15;;;4.43;;
73693;SDS011;61997;53.974;11.670;2022-07-06T00:18:47;6.15;;;3.97;;
73693;SDS011;61997;53.974;11.670;2022-07-06T00:21:14;5.90;;;3.80;;
73693;SDS011;61997;53.974;11.670;2022-07-06T00:23:40;6.13;;;4.85;;
73693;SDS011;61997;53.974;11.670;2022-07-06T00:26:06;7.65;;;4.60;;
73693;SDS011;61997;53.974;11.670;2022-07-06T00:28:33;6.25;;;3.88;;
73693;SDS011;61997;53.974;11.670;2022-07-06T00:30:59;7.32;;;3.78;;
73693;SDS011;61997;53.974;11.670;2022-07-06T00:33:25;5.55;;;3.80;;
73693;SDS011;61997;53.974;11.670;2022-07-06T00:35:51;7.88;;;4.30;;
73693;SDS011;61997;53.974;11.670;2022-07-06T00:38:17;5.47;;;3.67;;
73693;SDS011;61997;53.974;11.670;2022-07-06T00:40:43;5.88;;;3.75;;
73693;SDS011;61997;53.974;11.670;2022-07-06T00:43:09;6.90;;;3.60;;
73693;SDS011;61997;53.974;11.670;2022-07-06T00:45:35;6.28;;;3.80;;
73693;SDS011;61997;53.974;11.670;2022-07-06T00:48:01;6.00;;;3.45;;
73693;SDS011;61997;53.974;11.670;2022-07-06T00:50:27;7.00;;;4.10;;
73693;SDS011;61997;53.974;11.670;2022-07-06T00:52:58;6.28;;;3.90;;
73693;SDS011;61997;53.974;11.670;2022-07-06T00:55:26;5.82;;;3.70;;
73693;SDS011;61997;53.974;11.670;2022-07-06T00:57:52;6.75;;;4.03;;
73693;SDS011;61997;53.974;11.670;2022-07-06T01:00:20;8.23;;;4.03;;
73693;SDS011;61997;53.974;11.670;2022-07-06T01:02:46;4.85;;;3.33;;
73693;SDS011;61997;53.974;11.670;2022-07-06T01:05:13;5.35;;;3.58;;
73693;SDS011;61997;53.974;11.670;2022-07-06T01:07:40;6.82;;;4.05;;
73693;SDS011;61997;53.974;11.670;2022-07-06T01:10:07;5.13;;;3.40;;
73693;SDS011;61997;53.974;11.670;2022-07-06T01:12:37;5.47;;;3.55;;
73693;SDS011;61997;53.974;11.670;2022-07-06T01:15:04;6.75;;;3.65;;
73693;SDS011;61997;53.974;11.670;2022-07-06T01:17:30;5.95;;;3.55;;
73693;SDS011;61997;53.974;11.670;2022-07-06T01:19:56;6.25;;;3.45;;
73693;SDS011;61997;53.974;11.670;2022-07-06T01:22:22;6.30;;;3.50;;
73693;SDS011;61997;53.974;11.670;2022-07-06T01:24:48;5.57;;;3.17;;
73693;SDS011;61997;53.974;11.670;2022-07-06T01:27:15;4.93;;;3.60;;
73693;SDS011;61997;53.974;11.670;2022-07-06T01:29:41;5.28;;;3.28;;
73693;SDS011;61997;53.974;11.670;2022-07-06T01:32:07;6.20;;;3.88;;
73693;SDS011;61997;53.974;11.670;2022-07-06T01:34:33;4.80;;;3.17;;
73693;SDS011;61997;53.974;11.670;2022-07-06T01:37:00;4.60;;;2.80;;
73693;SDS011;61997;53.974;11.670;2022-07-06T01:39:26;5.45;;;3.40;;
73693;SDS011;61997;53.974;11.670;2022-07-06T01:41:51;4.60;;;2.92;;
73693;SDS011;61997;53.974;11.670;2022-07-06T01:44:17;6.28;;;3.47;;
73693;SDS011;61997;53.974;11.670;2022-07-06T01:46:43;5.22;;;3.33;;
73693;SDS011;61997;53.974;11.670;2022-07-06T01:49:09;4.05;;;2.83;;
73693;SDS011;61997;53.974;11.670;2022-07-06T01:51:36;5.22;;;3.33;;
73693;SDS011;61997;53.974;11.670;2022-07-06T01:54:02;5.35;;;3.10;;
73693;SDS011;61997;53.974;11.670;2022-07-06T01:56:28;5.05;;;3.05;;
73693;SDS011;61997;53.974;11.670;2022-07-06T01:58:54;4.88;;;2.70;;
73693;SDS011;61997;53.974;11.670;2022-07-06T02:01:20;5.28;;;2.97;;
73693;SDS011;61997;53.974;11.670;2022-07-06T02:03:46;4.70;;;3.10;;
73693;SDS011;61997;53.974;11.670;2022-07-06T02:06:12;3.95;;;2.72;;
73693;SDS011;61997;53.974;11.670;2022-07-06T02:08:39;5.20;;;2.97;;
73693;SDS011;61997;53.974;11.670;2022-07-06T02:11:05;4.00;;;2.83;;
73693;SDS011;61997;53.974;11.670;2022-07-06T02:13:32;3.88;;;2.55;;
73693;SDS011;61997;53.974;11.670;2022-07-06T02:15:58;3.65;;;2.58;;
73693;SDS011;61997;53.974;11.670;2022-07-06T02:18:24;5.20;;;2.80;;
73693;SDS011;61997;53.974;11.670;2022-07-06T02:20:50;4.90;;;2.97;;
73693;SDS011;61997;53.974;11.670;2022-07-06T02:23:16;5.00;;;2.60;;
73693;SDS011;61997;53.974;11.670;2022-07-06T02:25:42;4.90;;;2.72;;
73693;SDS011;61997;53.974;11.670;2022-07-06T02:28:08;4.30;;;2.60;;
73693;SDS011;61997;53.974;11.670;2022-07-06T02:30:34;3.75;;;2.20;;
73693;SDS011;61997;53.974;11.670;2022-07-06T02:33:00;5.13;;;2.80;;
73693;SDS011;61997;53.974;11.670;2022-07-06T02:35:26;4.57;;;2.40;;
73693;SDS011;61997;53.974;11.670;2022-07-06T02:37:52;4.32;;;2.60;;
73693;SDS011;61997;53.974;11.670;2022-07-06T02:40:18;4.03;;;2.13;;
73693;SDS011;61997;53.974;11.670;2022-07-06T02:42:44;3.38;;;2.30;;
73693;SDS011;61997;53.974;11.670;2022-07-06T02:45:10;3.00;;;1.90;;
73693;SDS011;61997;53.974;11.670;2022-07-06T02:47:36;3.63;;;1.90;;
73693;SDS011;61997;53.974;11.670;2022-07-06T02:50:03;3.38;;;2.40;;
73693;SDS011;61997;53.974;11.670;2022-07-06T02:52:29;2.88;;;1.90;;
73693;SDS011;61997;53.974;11.670;2022-07-06T02:54:56;3.90;;;2.40;;
73693;SDS011;61997;53.974;11.670;2022-07-06T02:57:22;4.55;;;2.30;;
73693;SDS011;61997;53.974;11.670;2022-07-06T02:59:48;3.72;;;2.05;;
73693;SDS011;61997;53.974;11.670;2022-07-06T03:02:15;3.70;;;1.83;;
73693;SDS011;61997;53.974;11.670;2022-07-06T03:04:41;4.00;;;2.20;;
73693;SDS011;61997;53.974;11.670;2022-07-06T03:07:07;3.35;;;2.05;;
73693;SDS011;61997;53.974;11.670;2022-07-06T03:09:33;3.35;;;2.03;;
73693;SDS011;61997;53.974;11.670;2022-07-06T03:12:00;2.85;;;1.80;;
73693;SDS011;61997;53.974;11.670;2022-07-06T03:14:26;3.20;;;1.88;;
73693;SDS011;61997;53.974;11.670;2022-07-06T03:16:52;3.75;;;1.92;;
73693;SDS011;61997;53.974;11.670;2022-07-06T03:19:18;3.05;;;1.80;;
73693;SDS011;61997;53.974;11.670;2022-07-06T03:21:45;4.00;;;2.20;;
73693;SDS011;61997;53.974;11.670;2022-07-06T03:24:11;3.00;;;1.70;;
73693;SDS011;61997;53.974;11.670;2022-07-06T03:26:37;2.22;;;1.63;;
73693;SDS011;61997;53.974;11.670;2022-07-06T03:29:03;2.80;;;1.60;;
73693;SDS011;61997;53.974;11.670;2022-07-06T03:31:29;2.53;;;1.60;;
73693;SDS011;61997;53.974;11.670;2022-07-06T03:33:55;2.47;;;1.55;;
73693;SDS011;61997;53.974;11.670;2022-07-06T03:36:21;2.88;;;1.80;;
73693;SDS011;61997;53.974;11.670;2022-07-06T03:38:47;2.83;;;1.92;;
73693;SDS011;61997;53.974;11.670;2022-07-06T03:41:13;3.08;;;1.90;;
73693;SDS011;61997;53.974;11.670;2022-07-06T03:43:39;2.78;;;1.50;;
73693;SDS011;61997;53.974;11.670;2022-07-06T03:46:05;2.85;;;1.60;;
73693;SDS011;61997;53.974;11.670;2022-07-06T03:48:31;3.00;;;1.90;;
73693;SDS011;61997;53.974;11.670;2022-07-06T03:50:56;2.55;;;1.60;;
73693;SDS011;61997;53.974;11.670;2022-07-06T03:53:22;3.97;;;1.85;;
73693;SDS011;61997;53.974;11.670;2022-07-06T03:55:48;2.83;;;1.40;;
73693;SDS011;61997;53.974;11.670;2022-07-06T03:58:33;2.35;;;1.45;;
73693;SDS011;61997;53.974;11.670;2022-07-06T04:00:59;2.22;;;1.40;;
73693;SDS011;61997;53.974;11.670;2022-07-06T04:03:26;2.40;;;1.25;;
73693;SDS011;61997;53.974;11.670;2022-07-06T04:05:52;2.63;;;1.33;;
73693;SDS011;61997;53.974;11.670;2022-07-06T04:08:18;2.53;;;1.50;;
73693;SDS011;61997;53.974;11.670;2022-07-06T04:10:44;2.60;;;1.55;;
73693;SDS011;61997;53.974;11.670;2022-07-06T04:13:11;3.33;;;2.10;;
73693;SDS011;61997;53.974;11.670;2022-07-06T04:15:37;3.10;;;1.92;;
73693;SDS011;61997;53.974;11.670;2022-07-06T04:18:03;1.85;;;1.27;;
73693;SDS011;61997;53.974;11.670;2022-07-06T04:20:29;2.65;;;1.35;;
73693;SDS011;61997;53.974;11.670;2022-07-06T04:22:55;2.55;;;1.40;;
73693;SDS011;61997;53.974;11.670;2022-07-06T04:25:21;3.33;;;1.30;;
73693;SDS011;61997;53.974;11.670;2022-07-06T04:27:47;1.92;;;1.30;;
73693;SDS011;61997;53.974;11.670;2022-07-06T04:30:13;2.63;;;1.33;;
73693;SDS011;61997;53.974;11.670;2022-07-06T04:32:39;2.20;;;1.20;;
73693;SDS011;61997;53.974;11.670;2022-07-06T04:35:05;3.28;;;1.27;;
73693;SDS011;61997;53.974;11.670;2022-07-06T04:37:32;2.33;;;1.20;;
73693;SDS011;61997;53.974;11.670;2022-07-06T04:39:58;2.25;;;1.00;;
73693;SDS011;61997;53.974;11.670;2022-07-06T04:42:24;3.00;;;1.23;;
73693;SDS011;61997;53.974;11.670;2022-07-06T04:44:50;4.07;;;1.60;;
73693;SDS011;61997;53.974;11.670;2022-07-06T04:47:19;1.98;;;1.10;;
73693;SDS011;61997;53.974;11.670;2022-07-06T04:49:45;1.90;;;0.90;;
73693;SDS011;61997;53.974;11.670;2022-07-06T04:52:11;1.65;;;1.00;;
73693;SDS011;61997;53.974;11.670;2022-07-06T04:54:37;2.08;;;1.20;;
73693;SDS011;61997;53.974;11.670;2022-07-06T04:57:03;2.05;;;0.90;;
73693;SDS011;61997;53.974;11.670;2022-07-06T04:59:29;1.77;;;0.90;;
73693;SDS011;61997;53.974;11.670;2022-07-06T05:01:58;2.70;;;1.10;;
73693;SDS011;61997;53.974;11.670;2022-07-06T05:04:24;2.38;;;0.80;;
73693;SDS011;61997;53.974;11.670;2022-07-06T05:06:50;1.90;;;0.98;;
73693;SDS011;61997;53.974;11.670;2022-07-06T05:09:16;2.45;;;0.90;;
73693;SDS011;61997;53.974;11.670;2022-07-06T05:11:42;1.98;;;1.02;;
73693;SDS011;61997;53.974;11.670;2022-07-06T05:14:09;2.35;;;1.30;;
73693;SDS011;61997;53.974;11.670;2022-07-06T05:16:35;2.10;;;0.93;;
73693;SDS011;61997;53.974;11.670;2022-07-06T05:19:02;2.28;;;1.10;;
73693;SDS011;61997;53.974;11.670;2022-07-06T05:21:28;2.45;;;1.02;;
73693;SDS011;61997;53.974;11.670;2022-07-06T05:23:54;1.63;;;0.85;;
73693;SDS011;61997;53.974;11.670;2022-07-06T05:26:20;1.50;;;0.90;;
73693;SDS011;61997;53.974;11.670;2022-07-06T05:28:46;2.65;;;1.10;;
73693;SDS011;61997;53.974;11.670;2022-07-06T05:31:12;1.65;;;1.02;;
73693;SDS011;61997;53.974;11.670;2022-07-06T05:33:38;2.35;;;0.93;;
73693;SDS011;61997;53.974;11.670;2022-07-06T05:36:04;1.23;;;0.80;;
73693;SDS011;61997;53.974;11.670;2022-07-06T05:38:30;1.50;;;0.88;;
73693;SDS011;61997;53.974;11.670;2022-07-06T05:40:57;2.45;;;1.20;;
73693;SDS011;61997;53.974;11.670;2022-07-06T05:43:23;1.33;;;0.80;;
73693;SDS011;61997;53.974;11.670;2022-07-06T05:45:49;1.73;;;1.10;;
73693;SDS011;61997;53.974;11.670;2022-07-06T05:48:15;2.42;;;0.90;;
73693;SDS011;61997;53.974;11.670;2022-07-06T05:51:00;2.33;;;1.10;;
73693;SDS011;61997;53.974;11.670;2022-07-06T05:53:26;2.05;;;1.20;;
73693;SDS011;61997;53.974;11.670;2022-07-06T05:55:52;2.33;;;1.10;;
73693;SDS011;61997;53.974;11.670;2022-07-06T05:58:18;2.47;;;1.20;;
73693;SDS011;61997;53.974;11.670;2022-07-06T06:00:44;2.10;;;1.33;;
73693;SDS011;61997;53.974;11.670;2022-07-06T06:03:10;2.55;;;1.20;;
73693;SDS011;61997;53.974;11.670;2022-07-06T06:05:36;1.90;;;1.20;;
73693;SDS011;61997;53.974;11.670;2022-07-06T06:08:02;2.13;;;1.00;;
73693;SDS011;61997;53.974;11.670;2022-07-06T06:10:28;2.95;;;1.48;;
73693;SDS011;61997;53.974;11.670;2022-07-06T06:12:54;2.03;;;1.13;;
73693;SDS011;61997;53.974;11.670;2022-07-06T06:15:21;3.03;;;1.30;;
73693;SDS011;61997;53.974;11.670;2022-07-06T06:17:46;2.10;;;0.95;;
73693;SDS011;61997;53.974;11.670;2022-07-06T06:20:13;2.38;;;1.17;;
73693;SDS011;61997;53.974;11.670;2022-07-06T06:22:50;2.10;;;1.23;;
73693;SDS011;61997;53.974;11.670;2022-07-06T06:25:16;1.90;;;1.30;;
73693;SDS011;61997;53.974;11.670;2022-07-06T06:27:43;3.15;;;1.23;;
73693;SDS011;61997;53.974;11.670;2022-07-06T06:30:09;1.92;;;1.10;;
73693;SDS011;61997;53.974;11.670;2022-07-06T06:32:35;2.67;;;1.60;;
73693;SDS011;61997;53.974;11.670;2022-07-06T06:35:02;2.72;;;1.20;;
73693;SDS011;61997;53.974;11.670;2022-07-06T06:37:28;2.58;;;1.45;;
73693;SDS011;61997;53.974;11.670;2022-07-06T06:39:54;1.95;;;1.05;;
73693;SDS011;61997;53.974;11.670;2022-07-06T06:42:20;2.13;;;1.30;;
73693;SDS011;61997;53.974;11.670;2022-07-06T06:44:46;2.38;;;1.30;;
73693;SDS011;61997;53.974;11.670;2022-07-06T06:47:12;3.33;;;1.60;;
73693;SDS011;61997;53.974;11.670;2022-07-06T06:49:38;2.40;;;1.33;;
73693;SDS011;61997;53.974;11.670;2022-07-06T06:52:04;2.97;;;1.60;;
73693;SDS011;61997;53.974;11.670;2022-07-06T06:54:30;2.85;;;1.80;;
73693;SDS011;61997;53.974;11.670;2022-07-06T06:56:56;3.40;;;1.60;;
73693;SDS011;61997;53.974;11.670;2022-07-06T06:59:22;5.40;;;2.72;;
73693;SDS011;61997;53.974;11.670;2022-07-06T07:01:48;7.18;;;4.25;;
73693;SDS011;61997;53.974;11.670;2022-07-06T07:04:14;8.02;;;4.45;;
73693;SDS011;61997;53.974;11.670;2022-07-06T07:06:40;7.90;;;5.25;;
73693;SDS011;61997;53.974;11.670;2022-07-06T07:09:06;8.52;;;5.50;;
73693;SDS011;61997;53.974;11.670;2022-07-06T07:11:32;10.52;;;6.18;;
73693;SDS011;61997;53.974;11.670;2022-07-06T07:13:58;10.40;;;6.20;;
73693;SDS011;61997;53.974;11.670;2022-07-06T07:16:25;9.63;;;5.82;;
73693;SDS011;61997;53.974;11.670;2022-07-06T07:18:52;8.25;;;4.72;;
73693;SDS011;61997;53.974;11.670;2022-07-06T07:21:18;10.25;;;5.72;;
73693;SDS011;61997;53.974;11.670;2022-07-06T07:23:44;9.00;;;5.45;;
73693;SDS011;61997;53.974;11.670;2022-07-06T07:26:10;8.13;;;5.40;;
73693;SDS011;61997;53.974;11.670;2022-07-06T07:28:36;8.57;;;5.80;;
73693;SDS011;61997;53.974;11.670;2022-07-06T07:31:03;11.82;;;6.72;;
73693;SDS011;61997;53.974;11.670;2022-07-06T07:33:29;10.05;;;6.00;;
73693;SDS011;61997;53.974;11.670;2022-07-06T07:35:55;8.90;;;5.90;;
73693;SDS011;61997;53.974;11.670;2022-07-06T07:38:21;9.63;;;5.85;;
73693;SDS011;61997;53.974;11.670;2022-07-06T07:40:47;10.32;;;6.05;;
73693;SDS011;61997;53.974;11.670;2022-07-06T07:43:13;9.43;;;5.50;;
73693;SDS011;61997;53.974;11.670;2022-07-06T07:45:39;8.18;;;5.22;;
73693;SDS011;61997;53.974;11.670;2022-07-06T07:48:05;7.50;;;4.97;;
73693;SDS011;61997;53.974;11.670;2022-07-06T07:50:31;6.38;;;4.40;;
73693;SDS011;61997;53.974;11.670;2022-07-06T07:52:57;8.68;;;5.43;;
73693;SDS011;61997;53.974;11.670;2022-07-06T07:55:23;7.57;;;4.97;;
73693;SDS011;61997;53.974;11.670;2022-07-06T07:57:49;7.53;;;5.05;;
73693;SDS011;61997;53.974;11.670;2022-07-06T08:00:15;7.47;;;4.40;;
73693;SDS011;61997;53.974;11.670;2022-07-06T08:02:42;6.40;;;4.00;;
73693;SDS011;61997;53.974;11.670;2022-07-06T08:05:08;8.63;;;3.92;;
73693;SDS011;61997;53.974;11.670;2022-07-06T08:07:38;5.97;;;4.30;;
73693;SDS011;61997;53.974;11.670;2022-07-06T08:10:04;4.72;;;3.40;;
73693;SDS011;61997;53.974;11.670;2022-07-06T08:12:31;6.10;;;4.22;;
73693;SDS011;61997;53.974;11.670;2022-07-06T08:14:57;6.18;;;3.38;;
73693;SDS011;61997;53.974;11.670;2022-07-06T08:17:23;7.55;;;3.30;;
73693;SDS011;61997;53.974;11.670;2022-07-06T08:19:50;5.80;;;3.38;;
73693;SDS011;61997;53.974;11.670;2022-07-06T08:22:16;6.55;;;3.65;;
73693;SDS011;61997;53.974;11.670;2022-07-06T08:24:42;6.20;;;2.92;;
73693;SDS011;61997;53.974;11.670;2022-07-06T08:27:08;5.25;;;3.03;;
73693;SDS011;61997;53.974;11.670;2022-07-06T08:29:34;5.40;;;2.75;;
73693;SDS011;61997;53.974;11.670;2022-07-06T08:32:00;5.15;;;2.80;;
73693;SDS011;61997;53.974;11.670;2022-07-06T08:34:26;5.57;;;2.63;;
73693;SDS011;61997;53.974;11.670;2022-07-06T08:36:52;3.88;;;2.60;;
73693;SDS011;61997;53.974;11.670;2022-07-06T08:39:18;5.13;;;2.38;;
73693;SDS011;61997;53.974;11.670;2022-07-06T08:41:44;5.57;;;2.28;;
73693;SDS011;61997;53.974;11.670;2022-07-06T08:44:12;3.80;;;1.98;;
73693;SDS011;61997;53.974;11.670;2022-07-06T08:46:38;3.25;;;2.33;;
73693;SDS011;61997;53.974;11.670;2022-07-06T08:49:06;4.82;;;2.45;;
73693;SDS011;61997;53.974;11.670;2022-07-06T08:51:32;4.22;;;2.25;;
73693;SDS011;61997;53.974;11.670;2022-07-06T08:53:58;4.70;;;2.10;;
73693;SDS011;61997;53.974;11.670;2022-07-06T08:56:25;3.53;;;1.90;;
73693;SDS011;61997;53.974;11.670;2022-07-06T08:58:51;4.95;;;2.00;;
73693;SDS011;61997;53.974;11.670;2022-07-06T09:01:18;4.55;;;2.03;;
73693;SDS011;61997;53.974;11.670;2022-07-06T09:03:45;3.38;;;2.15;;
73693;SDS011;61997;53.974;11.670;2022-07-06T09:06:12;3.65;;;1.70;;
73693;SDS011;61997;53.974;11.670;2022-07-06T09:08:40;3.55;;;1.83;;
73693;SDS011;61997;53.974;11.670;2022-07-06T09:11:06;3.17;;;1.58;;
73693;SDS011;61997;53.974;11.670;2022-07-06T09:13:33;4.03;;;1.83;;
73693;SDS011;61997;53.974;11.670;2022-07-06T09:16:11;4.05;;;1.60;;
73693;SDS011;61997;53.974;11.670;2022-07-06T09:18:38;3.97;;;2.03;;
73693;SDS011;61997;53.974;11.670;2022-07-06T09:21:04;3.47;;;1.88;;
73693;SDS011;61997;53.974;11.670;2022-07-06T09:23:30;3.78;;;1.30;;
73693;SDS011;61997;53.974;11.670;2022-07-06T09:25:56;5.35;;;1.55;;
73693;SDS011;61997;53.974;11.670;2022-07-06T09:28:22;4.28;;;1.33;;
73693;SDS011;61997;53.974;11.670;2022-07-06T09:30:48;3.60;;;1.50;;
73693;SDS011;61997;53.974;11.670;2022-07-06T09:33:17;3.97;;;1.42;;
73693;SDS011;61997;53.974;11.670;2022-07-06T09:35:43;3.40;;;1.42;;
73693;SDS011;61997;53.974;11.670;2022-07-06T09:38:11;2.97;;;1.30;;
73693;SDS011;61997;53.974;11.670;2022-07-06T09:40:38;7.47;;;1.52;;
73693;SDS011;61997;53.974;11.670;2022-07-06T09:45:35;4.05;;;1.23;;
73693;SDS011;61997;53.974;11.670;2022-07-06T09:50:43;3.28;;;1.20;;
73693;SDS011;61997;53.974;11.670;2022-07-06T09:53:10;3.72;;;1.38;;
73693;SDS011;61997;53.974;11.670;2022-07-06T09:55:37;2.92;;;1.65;;
73693;SDS011;61997;53.974;11.670;2022-07-06T09:58:03;3.40;;;1.20;;
73693;SDS011;61997;53.974;11.670;2022-07-06T10:00:29;3.10;;;1.63;;
73693;SDS011;61997;53.974;11.670;2022-07-06T10:02:55;3.55;;;1.20;;
73693;SDS011;61997;53.974;11.670;2022-07-06T10:05:22;4.80;;;2.28;;
73693;SDS011;61997;53.974;11.670;2022-07-06T10:07:58;5.00;;;2.22;;
73693;SDS011;61997;53.974;11.670;2022-07-06T10:10:25;6.72;;;2.00;;
73693;SDS011;61997;53.974;11.670;2022-07-06T10:12:51;4.75;;;2.47;;
73693;SDS011;61997;53.974;11.670;2022-07-06T10:15:20;6.43;;;2.30;;
73693;SDS011;61997;53.974;11.670;2022-07-06T10:17:47;5.15;;;2.25;;
73693;SDS011;61997;53.974;11.670;2022-07-06T10:20:13;5.03;;;1.95;;
73693;SDS011;61997;53.974;11.670;2022-07-06T10:22:40;3.08;;;1.75;;
73693;SDS011;61997;53.974;11.670;2022-07-06T10:25:06;3.75;;;2.05;;
73693;SDS011;61997;53.974;11.670;2022-07-06T10:27:32;13.32;;;2.72;;
73693;SDS011;61997;53.974;11.670;2022-07-06T10:29:58;7.57;;;2.30;;
73693;SDS011;61997;53.974;11.670;2022-07-06T10:32:24;5.80;;;2.03;;
73693;SDS011;61997;53.974;11.670;2022-07-06T10:34:51;3.80;;;1.70;;
73693;SDS011;61997;53.974;11.670;2022-07-06T10:37:24;4.68;;;1.73;;
73693;SDS011;61997;53.974;11.670;2022-07-06T10:39:51;4.40;;;2.00;;
73693;SDS011;61997;53.974;11.670;2022-07-06T10:42:43;3.33;;;1.70;;
73693;SDS011;61997;53.974;11.670;2022-07-06T10:45:19;4.10;;;1.77;;
73693;SDS011;61997;53.974;11.670;2022-07-06T10:47:47;6.47;;;2.10;;
73693;SDS011;61997;53.974;11.670;2022-07-06T10:50:13;4.85;;;1.60;;
73693;SDS011;61997;53.974;11.670;2022-07-06T10:52:50;5.05;;;1.63;;
73693;SDS011;61997;53.974;11.670;2022-07-06T10:55:32;5.35;;;1.83;;
73693;SDS011;61997;53.974;11.670;2022-07-06T10:57:58;3.15;;;1.65;;
73693;SDS011;61997;53.974;11.670;2022-07-06T11:00:25;3.85;;;1.60;;
73693;SDS011;61997;53.974;11.670;2022-07-06T11:02:51;4.43;;;1.60;;
73693;SDS011;61997;53.974;11.670;2022-07-06T11:08:02;3.75;;;1.60;;
73693;SDS011;61997;53.974;11.670;2022-07-06T11:10:28;3.35;;;1.50;;
73693;SDS011;61997;53.974;11.670;2022-07-06T11:13:24;3.95;;;1.38;;
73693;SDS011;61997;53.974;11.670;2022-07-06T11:15:50;3.10;;;1.65;;
73693;SDS011;61997;53.974;11.670;2022-07-06T11:18:18;4.80;;;1.63;;
73693;SDS011;61997;53.974;11.670;2022-07-06T11:21:10;3.78;;;1.20;;
73693;SDS011;61997;53.974;11.670;2022-07-06T11:23:30;6.00;;;1.38;;
73693;SDS011;61997;53.974;11.670;2022-07-06T11:25:57;5.32;;;1.33;;
73693;SDS011;61997;53.974;11.670;2022-07-06T11:28:23;5.95;;;1.40;;
73693;SDS011;61997;53.974;11.670;2022-07-06T11:30:50;2.50;;;1.23;;
73693;SDS011;61997;53.974;11.670;2022-07-06T11:33:30;3.63;;;1.45;;
73693;SDS011;61997;53.974;11.670;2022-07-06T11:36:12;3.75;;;1.25;;
73693;SDS011;61997;53.974;11.670;2022-07-06T11:38:38;3.30;;;1.50;;
73693;SDS011;61997;53.974;11.670;2022-07-06T11:41:04;1.95;;;1.30;;
73693;SDS011;61997;53.974;11.670;2022-07-06T11:43:30;3.83;;;1.52;;
73693;SDS011;61997;53.974;11.670;2022-07-06T11:45:56;2.70;;;1.27;;
73693;SDS011;61997;53.974;11.670;2022-07-06T11:48:23;2.47;;;1.55;;
73693;SDS011;61997;53.974;11.670;2022-07-06T11:50:58;3.97;;;1.65;;
73693;SDS011;61997;53.974;11.670;2022-07-06T11:53:25;2.75;;;1.38;;
73693;SDS011;61997;53.974;11.670;2022-07-06T11:55:51;5.78;;;1.55;;
73693;SDS011;61997;53.974;11.670;2022-07-06T11:58:18;3.42;;;1.63;;
73693;SDS011;61997;53.974;11.670;2022-07-06T12:01:02;2.63;;;1.58;;
73693;SDS011;61997;53.974;11.670;2022-07-06T12:03:28;4.32;;;1.55;;
73693;SDS011;61997;53.974;11.670;2022-07-06T12:05:55;3.70;;;1.30;;
73693;SDS011;61997;53.974;11.670;2022-07-06T12:08:21;3.53;;;1.20;;
73693;SDS011;61997;53.974;11.670;2022-07-06T12:10:47;4.00;;;1.58;;
73693;SDS011;61997;53.974;11.670;2022-07-06T12:13:13;2.30;;;1.40;;
73693;SDS011;61997;53.974;11.670;2022-07-06T12:15:39;4.10;;;1.70;;
73693;SDS011;61997;53.974;11.670;2022-07-06T12:18:05;4.03;;;1.77;;
73693;SDS011;61997;53.974;11.670;2022-07-06T12:20:31;2.63;;;1.65;;
73693;SDS011;61997;53.974;11.670;2022-07-06T12:23:01;3.40;;;1.65;;
73693;SDS011;61997;53.974;11.670;2022-07-06T12:25:34;2.90;;;1.95;;
73693;SDS011;61997;53.974;11.670;2022-07-06T12:28:00;4.75;;;2.35;;
73693;SDS011;61997;53.974;11.670;2022-07-06T12:30:26;4.65;;;2.42;;
73693;SDS011;61997;53.974;11.670;2022-07-06T12:33:12;4.03;;;2.58;;
73693;SDS011;61997;53.974;11.670;2022-07-06T12:35:39;4.60;;;2.42;;
73693;SDS011;61997;53.974;11.670;2022-07-06T12:38:05;4.20;;;2.70;;
73693;SDS011;61997;53.974;11.670;2022-07-06T12:40:31;4.80;;;2.25;;
73693;SDS011;61997;53.974;11.670;2022-07-06T12:42:58;5.93;;;3.03;;
73693;SDS011;61997;53.974;11.670;2022-07-06T12:45:27;5.45;;;3.08;;
73693;SDS011;61997;53.974;11.670;2022-07-06T12:48:00;4.15;;;2.88;;
73693;SDS011;61997;53.974;11.670;2022-07-06T12:50:46;5.00;;;3.47;;
73693;SDS011;61997;53.974;11.670;2022-07-06T12:53:25;6.40;;;3.78;;
73693;SDS011;61997;53.974;11.670;2022-07-06T12:56:08;5.75;;;3.70;;
73693;SDS011;61997;53.974;11.670;2022-07-06T12:58:35;6.30;;;3.78;;
73693;SDS011;61997;53.974;11.670;2022-07-06T13:01:01;6.57;;;4.22;;
73693;SDS011;61997;53.974;11.670;2022-07-06T13:03:27;6.20;;;4.30;;
73693;SDS011;61997;53.974;11.670;2022-07-06T13:05:53;8.50;;;4.95;;
73693;SDS011;61997;53.974;11.670;2022-07-06T13:08:19;7.18;;;5.25;;
73693;SDS011;61997;53.974;11.670;2022-07-06T13:10:45;9.00;;;5.25;;
73693;SDS011;61997;53.974;11.670;2022-07-06T13:13:12;8.13;;;5.90;;
73693;SDS011;61997;53.974;11.670;2022-07-06T13:15:40;10.85;;;6.43;;
73693;SDS011;61997;53.974;11.670;2022-07-06T13:18:07;12.30;;;7.25;;
73693;SDS011;61997;53.974;11.670;2022-07-06T13:20:33;9.13;;;5.75;;
73693;SDS011;61997;53.974;11.670;2022-07-06T13:22:59;13.00;;;7.50;;
73693;SDS011;61997;53.974;11.670;2022-07-06T13:25:25;9.85;;;6.35;;
73693;SDS011;61997;53.974;11.670;2022-07-06T13:27:51;9.07;;;5.97;;
73693;SDS011;61997;53.974;11.670;2022-07-06T13:30:17;10.20;;;6.22;;
73693;SDS011;61997;53.974;11.670;2022-07-06T13:32:43;10.50;;;6.88;;
73693;SDS011;61997;53.974;11.670;2022-07-06T13:35:09;8.95;;;5.60;;
73693;SDS011;61997;53.974;11.670;2022-07-06T13:37:35;9.25;;;5.40;;
73693;SDS011;61997;53.974;11.670;2022-07-06T13:40:01;7.57;;;5.05;;
73693;SDS011;61997;53.974;11.670;2022-07-06T13:42:27;7.78;;;5.05;;
73693;SDS011;61997;53.974;11.670;2022-07-06T13:44:53;9.48;;;5.63;;
73693;SDS011;61997;53.974;11.670;2022-07-06T13:47:19;8.00;;;5.35;;
73693;SDS011;61997;53.974;11.670;2022-07-06T13:49:45;8.27;;;4.95;;
73693;SDS011;61997;53.974;11.670;2022-07-06T13:52:12;7.70;;;4.88;;
73693;SDS011;61997;53.974;11.670;2022-07-06T13:54:38;7.40;;;4.72;;
73693;SDS011;61997;53.974;11.670;2022-07-06T13:57:05;7.72;;;5.15;;
73693;SDS011;61997;53.974;11.670;2022-07-06T13:59:31;8.73;;;5.07;;
73693;SDS011;61997;53.974;11.670;2022-07-06T14:01:57;7.03;;;4.40;;
73693;SDS011;61997;53.974;11.670;2022-07-06T14:04:24;6.32;;;3.97;;
73693;SDS011;61997;53.974;11.670;2022-07-06T14:06:50;8.02;;;4.55;;
73693;SDS011;61997;53.974;11.670;2022-07-06T14:09:16;6.95;;;4.38;;
73693;SDS011;61997;53.974;11.670;2022-07-06T14:11:41;5.82;;;3.90;;
73693;SDS011;61997;53.974;11.670;2022-07-06T14:14:07;5.10;;;3.15;;
73693;SDS011;61997;53.974;11.670;2022-07-06T14:16:34;4.28;;;2.97;;
73693;SDS011;61997;53.974;11.670;2022-07-06T14:19:00;4.68;;;3.15;;
73693;SDS011;61997;53.974;11.670;2022-07-06T14:21:27;6.00;;;3.47;;
73693;SDS011;61997;53.974;11.670;2022-07-06T14:23:53;4.75;;;3.17;;
73693;SDS011;61997;53.974;11.670;2022-07-06T14:26:19;5.18;;;3.08;;
73693;SDS011;61997;53.974;11.670;2022-07-06T14:28:45;5.57;;;3.30;;
73693;SDS011;61997;53.974;11.670;2022-07-06T14:31:11;4.38;;;2.88;;
73693;SDS011;61997;53.974;11.670;2022-07-06T14:33:37;5.72;;;3.35;;
73693;SDS011;61997;53.974;11.670;2022-07-06T14:36:03;5.00;;;2.45;;
73693;SDS011;61997;53.974;11.670;2022-07-06T14:38:29;4.55;;;3.13;;
73693;SDS011;61997;53.974;11.670;2022-07-06T14:40:55;5.05;;;2.58;;